Sparks, NV (89434)

10:11 PM PDT on September 30, 2016 (GMT -0700)
APRSWXNET | | Change Station

Elev 4596 ft 39.57 °N, 119.72 °W | Updated 53 minutes ago

Partly Cloudy
Partly Cloudy
64 °F
Feels Like 64 °F
N
4
Wind Variable Wind from South
Gusts 11.0 mph

Today
High -- | Low -- °F
--% Chance of Precip.
Yesterday
High -- | Low -- °F
Precip. -- in
Pressure 29.90 in
Visibility 10.0 miles
Clouds Few 9000 ft
Dew Point 31 °F
Humidity 29%
Rainfall in
Snow Depth Not available.
6:54 AM 6:41 PM
New Moon, 0% visible
METAR KRNO 010455Z 00000KT 10SM FEW090 17/01 A3003 RMK AO2 SLP123 T01720006
Pressure 29.90 in
Visibility 10.0 miles
Clouds Few 9000 ft
Dew Point 31 °F
Humidity 29%
Rainfall in
Snow Depth Not available.
6:54 AM 6:41 PM
New Moon, 0% visible
METAR KRNO 010455Z 00000KT 10SM FEW090 17/01 A3003 RMK AO2 SLP123 T01720006

10-Day Weather Forecast

Almanac

Astronomy

Sep. 30, 2016 Rise Set
Actual Time
Civil Twilight
Nautical Twilight
Astronomical Twilight
Moon
Length of Visible Light
Length of Day
Tomorrow will be .
, % of the Moon is Illuminated

Today's Extremes

State Highs State Lows

Community

WunderPhotos

Upload Photos

1,942,894 photos uploaded!

WunderBlog® & News

Nearby

Air Quality

  Air Quality AQ Index Pollutant
Not available.

Snow Depth

Station Depth Elevation

Earthquake Activity

City Distance Mag. Time & Date
Minimum magnitude displayed is 2.5.

Coastal Water Temperatures

Place Temperature

Stations

Nearby Weather Stations

Station Location Temp. Windchill Dew Point Humidity Wind Precip. Elev Updated Type
                   

Watches & Warnings

There are currently no watches in effect.